Time;durP1;ratioP1;P1;durP2;ratioP2;P2;SDS_P1;SDS_P2;PMS_P1;PMS_P2;Temp;Humidity;BMP_temperature;BMP_pressure;BME280_temperature;BME280_humidity;BME280_pressure;Samples;Min_cycle;Max_cycle;Signal;HPM_P1;HPM_P2
2022/11/15 00:00:46;;;;;;;41.80;33.10;;;;;;;8.95;88.49;100215.06;5071618;28;20195;-56
2022/11/15 00:03:14;;;;;;;46.95;36.15;;;;;;;9.00;88.22;100210.94;5070886;28;20430;-56
2022/11/15 00:05:41;;;;;;;47.27;33.53;;;;;;;9.03;88.06;100217.06;5071544;28;20266;-56
2022/11/15 00:08:08;;;;;;;45.80;33.13;;;;;;;9.01;87.69;100212.69;5071497;28;20195;-56
2022/11/15 00:10:35;;;;;;;46.13;32.30;;;;;;;9.04;87.65;100212.81;5071301;28;20245;-56
2022/11/15 00:13:06;;;;;;;46.23;30.67;;;;;;;8.96;87.84;100209.09;5071531;28;20531;-56
2022/11/15 00:15:34;;;;;;;43.83;30.77;;;;;;;9.00;87.99;100211.84;5071406;28;20646;-56
2022/11/15 00:18:03;;;;;;;42.47;29.63;;;;;;;9.00;87.55;100213.50;5071454;28;20640;-56
2022/11/15 00:20:30;;;;;;;42.43;29.90;;;;;;;8.96;87.89;100207.41;5071350;28;20187;-57
2022/11/15 00:22:57;;;;;;;40.77;29.50;;;;;;;8.95;87.93;100197.13;5072362;28;20197;-56
2022/11/15 00:25:23;;;;;;;39.30;29.17;;;;;;;8.97;87.48;100205.72;5074963;28;20653;-56
2022/11/15 00:27:51;;;;;;;40.93;30.17;;;;;;;8.98;87.67;100218.59;5074954;28;20199;-55
2022/11/15 00:30:18;;;;;;;41.90;29.60;;;;;;;8.94;87.60;100206.50;5074903;28;20270;-56
2022/11/15 00:32:45;;;;;;;44.17;31.90;;;;;;;8.99;87.65;100206.63;5074705;28;20670;-56
2022/11/15 00:35:13;;;;;;;41.70;29.43;;;;;;;9.03;87.54;100208.50;5074856;28;20214;-56
2022/11/15 00:37:40;;;;;;;40.60;30.33;;;;;;;9.04;87.20;100205.13;5074697;28;20277;-56
2022/11/15 00:40:09;;;;;;;36.00;27.87;;;;;;;9.04;86.86;100203.41;5074684;28;20195;-56
2022/11/15 00:42:35;;;;;;;39.00;27.17;;;;;;;9.03;86.44;100211.06;5075086;28;20184;-56
2022/11/15 00:45:02;;;;;;;41.33;33.23;;;;;;;8.97;86.98;100201.47;5074012;28;20523;-56
2022/11/15 00:47:29;;;;;;;38.27;28.60;;;;;;;9.02;86.93;100206.75;5074517;28;20198;-56
2022/11/15 00:49:56;;;;;;;42.60;28.30;;;;;;;8.88;86.97;100191.78;5074538;28;20194;-56
2022/11/15 00:52:24;;;;;;;36.27;27.00;;;;;;;8.78;87.03;100184.59;5074533;28;20195;-56
2022/11/15 00:54:51;;;;;;;42.10;31.23;;;;;;;8.87;87.77;100191.75;5073754;28;20430;-56
2022/11/15 00:57:18;;;;;;;38.60;27.77;;;;;;;8.92;87.56;100187.63;5074424;28;20719;-56
2022/11/15 00:59:45;;;;;;;40.20;28.90;;;;;;;9.03;87.31;100185.44;5074386;28;20230;-56
2022/11/15 01:02:12;;;;;;;41.60;29.23;;;;;;;9.06;87.21;100194.09;5074358;28;20195;-56
2022/11/15 01:04:39;;;;;;;38.80;28.33;;;;;;;9.06;87.01;100194.09;5074187;28;20660;-56
2022/11/15 01:07:05;;;;;;;39.53;29.70;;;;;;;9.05;87.13;100191.47;5074245;28;20198;-56
2022/11/15 01:09:34;;;;;;;41.70;29.60;;;;;;;9.05;87.39;100192.34;5073894;28;20252;-56
2022/11/15 01:12:00;;;;;;;38.07;29.47;;;;;;;9.07;87.13;100184.69;5074144;28;20191;-56
2022/11/15 01:14:27;;;;;;;40.10;29.67;;;;;;;9.08;87.38;100186.44;5074064;28;20240;-56
2022/11/15 01:16:54;;;;;;;37.40;28.47;;;;;;;9.07;87.77;100179.56;5074002;28;20191;-56
2022/11/15 01:19:21;;;;;;;41.07;29.70;;;;;;;9.08;87.58;100181.31;5073862;28;20276;-56
2022/11/15 01:21:50;;;;;;;39.13;28.93;;;;;;;9.11;87.70;100181.41;5073720;28;20198;-56
2022/11/15 01:24:17;;;;;;;38.63;29.07;;;;;;;9.04;87.58;100164.97;5073722;28;20223;-56
2022/11/15 01:26:45;;;;;;;45.03;35.75;;;;;;;9.09;87.61;100180.50;5073726;28;20495;-56
2022/11/15 01:29:12;;;;;;;43.10;32.13;;;;;;;9.11;87.60;100176.28;5073748;28;20191;-56
2022/11/15 01:31:38;;;;;;;38.60;30.10;;;;;;;9.14;87.93;100173.84;5073646;28;20190;-56
2022/11/15 01:34:05;;;;;;;44.90;31.73;;;;;;;9.14;87.18;100168.72;5073738;28;20199;-56
2022/11/15 01:36:32;;;;;;;43.08;31.15;;;;;;;9.12;86.85;100176.31;5073430;28;20433;-56
2022/11/15 01:39:00;;;;;;;41.47;30.83;;;;;;;9.10;87.17;100177.09;5073271;28;20215;-56
2022/11/15 01:41:29;;;;;;;44.77;29.60;;;;;;;9.11;87.31;100172.03;5073398;28;20199;-56
2022/11/15 01:43:58;;;;;;;41.73;29.43;;;;;;;9.11;87.16;100171.16;5073416;28;20195;-56
2022/11/15 01:46:30;;;;;;;37.53;27.67;;;;;;;9.11;87.24;100168.59;5073315;28;20213;-56
2022/11/15 01:49:01;;;;;;;38.03;28.50;;;;;;;9.14;87.35;100164.47;5074213;28;20219;-57
2022/11/15 01:51:33;;;;;;;38.80;29.27;;;;;;;9.16;86.80;100164.50;5073731;28;20190;-56
2022/11/15 01:54:03;;;;;;;39.87;29.03;;;;;;;9.13;86.84;100167.84;5073409;28;20600;-56
2022/11/15 01:56:33;;;;;;;37.70;28.20;;;;;;;9.13;86.79;100166.94;5072935;28;20213;-56
2022/11/15 01:59:05;;;;;;;42.80;28.50;;;;;;;9.11;86.68;100161.78;5073057;28;20723;-56
2022/11/15 02:01:33;;;;;;;37.63;28.60;;;;;;;9.12;86.37;100167.78;5073593;28;20194;-56
2022/11/15 02:04:06;;;;;;;38.83;27.70;;;;;;;9.11;86.75;100163.47;5072768;28;20313;-56
2022/11/15 02:06:33;;;;;;;40.03;28.63;;;;;;;9.07;86.99;100154.81;5073273;28;20194;-54
2022/11/15 02:09:01;;;;;;;41.95;32.08;;;;;;;9.15;87.20;100173.00;5072219;28;20927;-56
2022/11/15 02:11:48;;;;;;;38.43;29.43;;;;;;;9.02;86.78;100147.78;5072798;28;20195;-57
2022/11/15 02:14:19;;;;;;;40.93;29.37;;;;;;;9.11;86.68;100166.03;5050581;28;20657;-55
2022/11/15 02:16:58;;;;;;;42.27;29.47;;;;;;;9.09;86.58;100163.41;5044280;28;20205;-55
2022/11/15 02:19:48;;;;;;;40.90;28.23;;;;;;;9.07;86.90;100161.63;5048522;28;20674;-55
2022/11/15 02:22:31;;;;;;;36.17;27.13;;;;;;;9.11;86.66;100158.34;5052582;28;20184;-55
2022/11/15 02:25:22;;;;;;;39.03;28.27;;;;;;;9.13;86.72;100162.69;5043713;28;20196;-56
2022/11/15 02:28:04;;;;;;;38.67;28.40;;;;;;;9.12;86.39;100162.66;5052780;28;20258;-55
2022/11/15 02:30:42;;;;;;;40.30;27.77;;;;;;;9.19;86.67;100164.59;5032344;28;20185;-55
2022/11/15 02:33:19;;;;;;;41.47;28.50;;;;;;;9.20;86.58;100156.94;5041333;28;20655;-56
2022/11/15 02:35:59;;;;;;;42.57;28.57;;;;;;;9.23;86.23;100161.31;5034692;28;20237;-56
2022/11/15 02:38:33;;;;;;;39.30;27.63;;;;;;;9.25;86.38;100164.81;5043050;28;20259;-55
2022/11/15 02:41:05;;;;;;;39.47;26.33;;;;;;;9.31;86.26;100159.88;5049564;28;20270;-55
2022/11/15 02:49:19;;;;;;;38.03;26.43;;;;;;;9.30;85.33;100150.44;5030768;28;20211;-56
2022/11/15 02:51:49;;;;;;;40.40;31.03;;;;;;;9.32;85.70;100157.34;5031547;28;20440;-55
2022/11/15 02:54:21;;;;;;;34.73;26.43;;;;;;;9.33;85.16;100153.09;5041041;28;20538;-56
2022/11/15 02:56:50;;;;;;;37.13;27.57;;;;;;;9.30;85.25;100153.00;5043842;28;20638;-55
2022/11/15 02:59:53;;;;;;;37.13;27.03;;;;;;;9.31;85.46;100152.19;5043037;28;20255;-55
2022/11/15 03:02:35;;;;;;;39.72;31.50;;;;;;;9.28;86.39;100149.50;5046701;28;20439;-56
2022/11/15 03:05:11;;;;;;;39.37;27.77;;;;;;;9.29;86.36;100140.97;5032348;28;20204;-55
2022/11/15 03:07:45;;;;;;;38.13;27.57;;;;;;;9.30;86.32;100140.16;5040719;28;20248;-55
2022/11/15 03:10:18;;;;;;;35.33;27.87;;;;;;;9.27;86.12;100151.19;5052413;28;20257;-56
2022/11/15 03:12:52;;;;;;;36.90;26.67;;;;;;;9.23;86.63;100143.38;5038903;28;20291;-56
2022/11/15 03:15:24;;;;;;;39.37;28.07;;;;;;;9.26;86.57;100151.13;5032410;28;20201;-55
2022/11/15 03:17:59;;;;;;;38.97;27.37;;;;;;;9.32;86.04;100149.66;5032398;28;20199;-55
2022/11/15 03:20:28;;;;;;;40.80;27.53;;;;;;;9.28;86.12;100146.94;5044830;28;20674;-55
2022/11/15 03:22:57;;;;;;;44.87;28.33;;;;;;;9.26;86.09;100148.56;5039598;28;20196;-55
2022/11/15 03:25:28;;;;;;;37.50;27.43;;;;;;;9.26;86.05;100151.13;5052215;28;20196;-55
2022/11/15 03:27:58;;;;;;;40.80;27.70;;;;;;;9.21;85.91;100145.88;5052019;28;20192;-55
2022/11/15 03:30:25;;;;;;;37.30;27.17;;;;;;;9.20;85.58;100144.13;5052935;28;20193;-54
2022/11/15 03:32:57;;;;;;;36.33;26.27;;;;;;;9.20;85.54;100135.59;5051795;28;20610;-54
2022/11/15 03:35:26;;;;;;;38.20;30.55;;;;;;;9.31;85.69;100139.34;5050711;28;20439;-54
2022/11/15 03:37:58;;;;;;;38.27;27.50;;;;;;;9.29;85.11;100129.03;5051956;28;20341;-55
2022/11/15 03:40:31;;;;;;;40.20;28.70;;;;;;;9.37;85.11;100135.28;5052064;28;20647;-54
2022/11/15 03:43:04;;;;;;;35.90;26.80;;;;;;;9.39;85.03;100131.06;5051687;28;20199;-54
2022/11/15 03:45:37;;;;;;;39.83;31.02;;;;;;;9.42;84.92;100125.19;5050837;28;20427;-55
2022/11/15 03:48:12;;;;;;;38.07;27.77;;;;;;;9.49;84.35;100127.97;5054662;28;20290;-55
2022/11/15 03:50:39;;;;;;;37.90;27.03;;;;;;;9.49;84.09;100122.84;5052077;28;20188;-55
2022/11/15 03:53:06;;;;;;;33.80;26.50;;;;;;;9.45;83.97;100114.97;5051526;28;20196;-55
2022/11/15 03:55:34;;;;;;;38.03;26.77;;;;;;;9.24;83.98;100081.00;5051435;28;20207;-54
2022/11/15 03:58:02;;;;;;;36.70;26.20;;;;;;;9.42;84.21;100117.47;5066318;28;20230;-55
2022/11/15 04:00:29;;;;;;;35.17;25.70;;;;;;;9.43;84.16;100108.94;5070639;28;20200;-54
2022/11/15 04:02:56;;;;;;;37.23;25.40;;;;;;;9.38;83.34;100106.25;5065891;28;20199;-55
2022/11/15 04:05:24;;;;;;;35.90;25.83;;;;;;;9.33;83.06;100118.06;5075022;28;20210;-54
2022/11/15 04:07:51;;;;;;;39.13;27.27;;;;;;;9.38;82.80;100100.25;5073928;28;20932;-54
2022/11/15 04:10:18;;;;;;;33.97;24.77;;;;;;;9.39;82.63;100096.88;5075631;28;20195;-55
2022/11/15 04:12:47;;;;;;;37.45;29.00;;;;;;;9.50;82.38;100103.19;5068574;28;20832;-55
2022/11/15 04:15:16;;;;;;;33.40;25.10;;;;;;;9.52;82.20;100103.22;5047574;28;20231;-55
2022/11/15 04:17:45;;;;;;;32.57;23.30;;;;;;;9.55;82.42;100100.75;5037607;28;20246;-54
2022/11/15 04:25:45;;;;;;;29.03;23.33;;;;;;;9.39;81.75;100087.44;5035210;28;20187;-54
2022/11/15 04:28:13;;;;;;;30.70;22.83;;;;;;;9.37;81.52;100090.78;5035578;28;20188;-54
2022/11/15 04:30:40;;;;;;;29.70;22.60;;;;;;;9.37;81.92;100083.97;5065068;28;20191;-55
2022/11/15 04:33:06;;;;;;;32.37;22.17;;;;;;;9.34;81.28;100089.00;5074588;28;20199;-54
2022/11/15 04:35:33;;;;;;;31.83;22.70;;;;;;;9.34;81.98;100088.13;5074762;28;20191;-54
2022/11/15 04:38:02;;;;;;;32.67;24.20;;;;;;;9.20;81.94;100084.31;5074645;28;20535;-55
2022/11/15 04:40:29;;;;;;;31.67;22.77;;;;;;;9.21;81.98;100094.59;5074334;28;20629;-55
2022/11/15 04:42:56;;;;;;;32.60;24.63;;;;;;;9.13;82.35;100093.50;5074764;28;20677;-55
2022/11/15 04:45:23;;;;;;;31.07;22.87;;;;;;;9.08;82.57;100099.28;5074637;28;20186;-55
2022/11/15 04:47:49;;;;;;;33.37;23.43;;;;;;;8.96;82.54;100096.31;5074714;28;20221;-55
2022/11/15 04:50:17;;;;;;;31.27;22.60;;;;;;;8.83;83.35;100098.50;5074489;28;20191;-55
2022/11/15 04:52:51;;;;;;;34.25;25.75;;;;;;;8.81;83.68;100095.03;5073689;28;20441;-55
2022/11/15 04:55:19;;;;;;;31.47;23.43;;;;;;;8.77;83.68;100095.75;5074243;28;20194;-55
2022/11/15 04:57:45;;;;;;;31.70;24.10;;;;;;;8.80;83.32;100093.28;5074192;28;20252;-55
2022/11/15 05:00:14;;;;;;;28.77;21.80;;;;;;;8.82;83.32;100091.63;5074103;28;20219;-55
2022/11/15 05:05:25;;;;;;;29.80;21.70;;;;;;;8.83;83.81;100087.38;5072463;28;20204;-55
2022/11/15 05:07:52;;;;;;;29.80;22.87;;;;;;;8.83;84.00;100087.38;5074413;28;20194;-55
2022/11/15 05:10:21;;;;;;;32.60;22.23;;;;;;;8.83;83.67;100093.38;5073891;28;20195;-55
2022/11/15 05:12:47;;;;;;;28.57;20.07;;;;;;;8.88;83.37;100091.84;5074090;28;20224;-55
2022/11/15 05:15:14;;;;;;;29.90;22.00;;;;;;;8.92;83.06;100089.38;5073965;28;20191;-54
2022/11/15 05:17:42;;;;;;;27.40;20.47;;;;;;;8.88;82.81;100086.72;5073322;28;20198;-54
2022/11/15 05:20:09;;;;;;;28.83;20.97;;;;;;;8.89;82.62;100091.03;5073509;28;20268;-55
2022/11/15 05:22:36;;;;;;;25.20;20.23;;;;;;;8.92;82.85;100090.25;5073610;28;20195;-56
2022/11/15 05:25:03;;;;;;;30.23;21.70;;;;;;;8.89;82.67;100080.78;5073807;28;20195;-55
2022/11/15 05:27:32;;;;;;;31.83;21.70;;;;;;;8.92;82.47;100089.38;5073564;28;20187;-54
2022/11/15 05:29:58;;;;;;;26.13;20.43;;;;;;;8.94;82.50;100087.72;5073421;28;20578;-55
2022/11/15 05:32:26;;;;;;;27.30;21.17;;;;;;;8.98;82.66;100082.78;5069031;28;20194;-55
2022/11/15 05:34:53;;;;;;;26.90;21.13;;;;;;;9.03;82.28;100096.59;5073654;28;20199;-55
2022/11/15 05:37:19;;;;;;;32.50;24.50;;;;;;;9.03;82.34;100088.03;5073078;28;20194;-55
2022/11/15 05:39:46;;;;;;;43.63;24.50;;;;;;;9.04;82.71;100097.47;5073196;28;20219;-55
2022/11/15 05:42:15;;;;;;;32.03;24.33;;;;;;;9.04;82.44;100088.06;5073243;28;20277;-55
2022/11/15 05:44:47;;;;;;;31.50;23.37;;;;;;;9.08;82.20;100095.03;5073122;28;20201;-55
2022/11/15 05:47:17;;;;;;;27.33;21.13;;;;;;;9.10;81.61;100095.94;5072922;28;20192;-55
2022/11/15 05:49:47;;;;;;;27.37;20.17;;;;;;;9.16;80.89;100098.72;5072723;28;20278;-55
2022/11/15 05:52:17;;;;;;;28.53;21.57;;;;;;;9.22;80.63;100101.47;5071276;28;20620;-56
2022/11/15 05:54:45;;;;;;;42.60;30.97;;;;;;;9.27;80.98;100104.16;5043027;28;20196;-55
2022/11/15 05:57:12;;;;;;;30.47;22.07;;;;;;;9.35;80.42;100107.84;5032857;28;20203;-55
2022/11/15 05:59:40;;;;;;;35.17;23.17;;;;;;;9.38;80.42;100113.06;5033335;28;20283;-55
2022/11/15 06:02:08;;;;;;;29.90;21.70;;;;;;;9.40;80.41;100109.72;5032558;28;20193;-55
2022/11/15 06:04:35;;;;;;;29.63;21.10;;;;;;;9.49;79.96;100115.16;5032585;28;20189;-55
2022/11/15 06:07:02;;;;;;;32.40;22.27;;;;;;;9.48;79.93;100112.50;5033344;28;20196;-56
2022/11/15 06:09:29;;;;;;;32.03;23.13;;;;;;;9.42;80.36;100112.34;5052466;28;20192;-55
2022/11/15 06:11:56;;;;;;;29.70;22.60;;;;;;;9.42;80.51;100113.19;5052045;28;20193;-55
2022/11/15 06:14:22;;;;;;;33.63;22.20;;;;;;;9.44;80.89;100110.69;5052106;28;20286;-59
2022/11/15 06:16:49;;;;;;;36.10;23.73;;;;;;;9.49;80.63;100120.28;5052050;28;20246;-55
2022/11/15 06:19:17;;;;;;;29.73;22.90;;;;;;;9.49;80.80;100114.25;5058175;28;20673;-56
2022/11/15 06:21:44;;;;;;;30.37;22.60;;;;;;;9.53;80.40;100115.25;5071560;28;20230;-55
2022/11/15 06:24:11;;;;;;;32.77;21.20;;;;;;;9.57;79.78;100117.94;5069822;28;20218;-56
2022/11/15 06:26:38;;;;;;;29.85;24.85;;;;;;;9.66;79.40;100123.34;5071248;28;20955;-55
2022/11/15 06:29:05;;;;;;;27.93;20.67;;;;;;;9.72;78.36;100120.09;5071762;28;20207;-55
2022/11/15 06:31:32;;;;;;;30.93;22.00;;;;;;;9.79;78.44;100115.19;5071974;28;20199;-56
2022/11/15 06:33:59;;;;;;;61.17;23.40;;;;;;;9.80;78.33;100110.91;5071881;28;20191;-56
2022/11/15 06:36:27;;;;;;;32.53;20.40;;;;;;;9.80;77.94;100116.94;5071912;28;20673;-56
2022/11/15 06:38:54;;;;;;;28.07;20.20;;;;;;;9.75;77.25;100113.31;5071855;28;20201;-56
2022/11/15 06:41:21;;;;;;;28.23;20.07;;;;;;;9.68;77.74;100114.00;5072408;28;20192;-56
2022/11/15 06:43:47;;;;;;;30.20;22.17;;;;;;;9.74;77.95;100115.88;5071930;28;20247;-56
2022/11/15 06:46:14;;;;;;;32.83;21.47;;;;;;;9.80;77.40;100111.78;5072426;28;20183;-56
2022/11/15 06:48:41;;;;;;;25.60;20.57;;;;;;;9.84;77.10;100113.59;5072156;28;20199;-56
2022/11/15 06:51:08;;;;;;;30.17;21.93;;;;;;;9.91;76.44;100112.97;5071367;28;20202;-57
2022/11/15 06:53:36;;;;;;;25.07;19.60;;;;;;;9.98;75.78;100109.75;5050545;28;20227;-57
2022/11/15 06:56:04;;;;;;;27.23;20.40;;;;;;;10.08;75.01;100121.13;5059177;28;20196;-56
2022/11/15 06:58:31;;;;;;;27.67;20.70;;;;;;;10.15;75.19;100119.66;5064313;28;20230;-56
2022/11/15 07:01:02;;;;;;;29.47;19.93;;;;;;;10.22;74.31;100111.28;5071607;28;20218;-56
2022/11/15 07:03:29;;;;;;;25.23;19.57;;;;;;;10.22;73.71;100116.44;5071852;28;20190;-56
2022/11/15 07:05:56;;;;;;;29.10;18.50;;;;;;;10.29;73.04;100108.94;5072079;28;20195;-57
2022/11/15 07:08:24;;;;;;;29.47;19.37;;;;;;;10.22;73.08;100101.03;5052338;28;20268;-57
2022/11/15 07:10:53;;;;;;;22.10;16.30;;;;;;;10.22;72.35;100103.59;5051535;28;20246;-57
2022/11/15 07:13:19;;;;;;;28.57;18.10;;;;;;;10.20;72.75;100102.66;5051925;28;20192;-56
2022/11/15 07:15:46;;;;;;;23.40;17.73;;;;;;;10.14;72.83;100097.34;5058093;28;20199;-56
2022/11/15 07:18:13;;;;;;;30.60;17.93;;;;;;;10.24;72.72;100105.38;5071565;28;20281;-56
2022/11/15 07:20:40;;;;;;;23.63;17.77;;;;;;;10.26;72.65;100102.84;5071620;28;20218;-56
2022/11/15 07:23:07;;;;;;;28.20;19.80;;;;;;;10.33;73.00;100099.63;5063739;28;20192;-58
2022/11/15 07:25:34;;;;;;;27.33;18.93;;;;;;;10.40;73.10;100096.38;5049645;28;20188;-56
2022/11/15 07:28:03;;;;;;;28.00;17.60;;;;;;;10.49;72.79;100096.63;5051257;28;20188;-58
2022/11/15 07:30:30;;;;;;;27.17;18.70;;;;;;;10.51;72.80;100085.56;5048845;28;20203;-56
2022/11/15 07:33:02;;;;;;;26.20;18.97;;;;;;;10.55;71.81;100086.47;5050911;28;20203;-56
2022/11/15 07:35:30;;;;;;;25.33;17.63;;;;;;;10.71;71.97;100092.91;5055139;28;20193;-56
2022/11/15 07:37:59;;;;;;;23.67;18.07;;;;;;;10.79;71.65;100097.41;5055165;28;20200;-56
2022/11/15 07:40:27;;;;;;;21.87;16.90;;;;;;;10.88;70.55;100095.03;5053190;28;20281;-57
2022/11/15 07:42:59;;;;;;;26.33;17.13;;;;;;;10.93;70.30;100097.72;5054598;28;20226;-56
2022/11/15 07:45:27;;;;;;;24.10;17.23;;;;;;;11.00;70.42;100090.19;5053137;28;20199;-55
2022/11/15 07:47:55;;;;;;;23.37;17.77;;;;;;;11.13;69.80;100094.78;5054628;28;20188;-55
2022/11/15 07:50:22;;;;;;;25.37;17.80;;;;;;;11.18;68.85;100097.47;5052185;28;20202;-56
2022/11/15 07:52:55;;;;;;;22.50;17.63;;;;;;;11.06;69.09;100046.63;5056848;28;20196;-58
2022/11/15 07:55:22;;;;;;;27.93;17.93;;;;;;;11.39;68.70;100082.53;5055681;28;20188;-56
2022/11/15 07:57:49;;;;;;;23.87;17.17;;;;;;;11.45;68.68;100085.25;5059307;28;20233;-56
2022/11/15 08:00:16;;;;;;;24.97;18.27;;;;;;;11.50;68.09;100086.22;5056616;28;20231;-56
2022/11/15 08:02:44;;;;;;;23.67;18.83;;;;;;;11.59;67.76;100091.53;5054942;28;20262;-56
2022/11/15 08:05:11;;;;;;;28.80;20.70;;;;;;;11.63;68.44;100088.22;5054885;28;20550;-56
2022/11/15 08:07:40;;;;;;;24.90;19.20;;;;;;;11.67;68.58;100084.84;5054845;28;20193;-56
2022/11/15 08:10:08;;;;;;;28.57;18.97;;;;;;;11.69;67.36;100082.34;5053340;28;20574;-56
2022/11/15 08:12:35;;;;;;;27.63;21.17;;;;;;;11.74;67.82;100081.63;5069651;28;20195;-56
2022/11/15 08:15:01;;;;;;;31.50;20.67;;;;;;;11.69;67.21;100070.38;5047178;28;20662;-56
2022/11/15 08:17:31;;;;;;;31.33;20.73;;;;;;;11.69;68.17;100075.50;5034710;28;20432;-57
2022/11/15 08:20:00;;;;;;;32.93;20.77;;;;;;;11.56;68.26;100067.47;5034618;28;20252;-56
2022/11/15 08:22:26;;;;;;;25.93;20.33;;;;;;;11.58;68.81;100073.50;5034567;28;20564;-56
2022/11/15 08:24:53;;;;;;;28.57;20.57;;;;;;;11.67;68.70;100071.13;5034855;28;20219;-56
2022/11/15 08:27:20;;;;;;;30.17;21.30;;;;;;;11.73;68.38;100071.28;5034654;28;20211;-56
2022/11/15 08:29:49;;;;;;;28.87;20.77;;;;;;;11.68;68.19;100065.13;5035035;28;20251;-56
2022/11/15 08:32:17;;;;;;;32.23;20.37;;;;;;;11.69;68.65;100070.38;5034922;28;20239;-56
2022/11/15 08:34:44;;;;;;;33.43;22.10;;;;;;;11.75;68.76;100072.19;5060206;28;20241;-56
2022/11/15 08:37:12;;;;;;;29.80;21.50;;;;;;;11.82;69.03;100061.16;5074281;28;20202;-57
2022/11/15 08:39:39;;;;;;;30.77;23.03;;;;;;;11.92;69.11;100067.38;5074293;28;20219;-55
2022/11/15 08:42:06;;;;;;;35.90;23.97;;;;;;;12.02;68.84;100064.16;5074345;28;20192;-55
2022/11/15 08:44:32;;;;;;;32.30;23.43;;;;;;;12.09;68.46;100064.28;5072006;28;20293;-55
2022/11/15 08:46:59;;;;;;;33.37;24.03;;;;;;;12.18;68.30;100064.47;5074075;28;20539;-55
2022/11/15 08:49:26;;;;;;;33.47;22.93;;;;;;;12.23;68.24;100057.69;5074192;28;20221;-55
2022/11/15 08:51:53;;;;;;;36.63;25.10;;;;;;;12.31;68.08;100056.13;5074062;28;20581;-55
2022/11/15 08:54:21;;;;;;;31.80;23.83;;;;;;;12.37;68.04;100058.81;5073978;28;20278;-56
2022/11/15 08:56:48;;;;;;;38.13;24.37;;;;;;;12.42;67.81;100054.59;5074009;28;20195;-55
2022/11/15 08:59:15;;;;;;;33.20;25.52;;;;;;;12.35;68.23;100039.88;5074177;28;20437;-55
2022/11/15 09:01:42;;;;;;;41.53;25.00;;;;;;;12.48;68.00;100047.81;5071992;28;20227;-55
2022/11/15 09:04:08;;;;;;;36.40;24.63;;;;;;;12.42;68.38;100033.13;5073665;28;20645;-55
2022/11/15 09:06:35;;;;;;;35.23;25.43;;;;;;;12.41;68.77;100037.41;5073827;28;20184;-55
2022/11/15 09:09:04;;;;;;;35.77;24.13;;;;;;;12.40;69.20;100032.22;5074088;28;20191;-56
2022/11/15 09:11:32;;;;;;;35.70;29.27;;;;;;;12.54;69.98;100020.44;5072710;28;20438;-55
2022/11/15 09:13:59;;;;;;;34.77;26.37;;;;;;;12.73;68.84;100024.19;5073526;28;20188;-57
2022/11/15 09:16:26;;;;;;;38.87;26.13;;;;;;;12.76;69.19;100008.78;5073464;28;20192;-55
2022/11/15 09:18:53;;;;;;;34.40;25.73;;;;;;;12.69;69.58;100002.63;5073925;28;20189;-55
2022/11/15 09:21:20;;;;;;;40.60;27.03;;;;;;;12.56;70.32;99999.84;5073284;28;20643;-56
2022/11/15 09:23:47;;;;;;;36.53;27.57;;;;;;;12.61;71.13;99995.66;5073776;28;20187;-56
2022/11/15 09:26:14;;;;;;;38.43;27.50;;;;;;;12.62;71.40;99995.66;5073599;28;20562;-56
2022/11/15 09:28:42;;;;;;;36.97;28.60;;;;;;;12.71;71.31;99985.50;5052707;28;20188;-56
2022/11/15 09:31:10;;;;;;;39.53;28.37;;;;;;;12.77;71.18;99990.72;5050656;28;20284;-56
2022/11/15 09:33:37;;;;;;;40.40;28.90;;;;;;;12.68;72.05;99984.56;5048390;28;20188;-57
2022/11/15 09:36:05;;;;;;;37.67;27.60;;;;;;;12.53;73.72;99979.16;5052577;28;20666;-57
2022/11/15 09:38:33;;;;;;;39.27;28.50;;;;;;;12.49;74.08;99978.28;5063922;28;20223;-56
2022/11/15 09:41:23;;;;;;;39.97;29.07;;;;;;;12.39;74.59;99961.78;5072993;28;20226;-56
2022/11/15 09:44:04;;;;;;;41.20;33.38;;;;;;;12.56;74.50;99971.47;5064555;28;20464;-56
2022/11/15 09:46:43;;;;;;;42.70;30.43;;;;;;;12.70;75.25;99962.25;5051573;28;20189;-57
2022/11/15 09:49:14;;;;;;;38.87;30.50;;;;;;;12.70;74.40;99960.56;5043068;28;20192;-56
2022/11/15 09:51:47;;;;;;;48.03;33.03;;;;;;;12.72;74.79;99957.97;5040638;28;20198;-57
2022/11/15 09:54:22;;;;;;;41.67;31.13;;;;;;;12.81;74.14;99955.56;5048730;28;20196;-56
2022/11/15 09:56:51;;;;;;;45.30;32.43;;;;;;;12.84;73.61;99951.31;5049840;28;20643;-56
2022/11/15 09:59:52;;;;;;;46.00;30.90;;;;;;;12.99;72.75;99948.09;5056666;28;20221;-56
2022/11/15 10:02:34;;;;;;;40.00;29.37;;;;;;;12.96;71.47;99922.25;5049159;28;20669;-56
2022/11/15 10:05:02;;;;;;;38.57;29.03;;;;;;;13.10;71.08;99937.94;5066532;28;20188;-56
2022/11/15 10:07:36;;;;;;;39.67;28.43;;;;;;;13.16;70.44;99931.13;5072688;28;20188;-56
2022/11/15 10:10:13;;;;;;;37.77;27.90;;;;;;;13.15;70.14;99921.69;5072791;28;20371;-56
2022/11/15 10:12:42;;;;;;;44.07;28.70;;;;;;;13.19;70.09;99931.16;5072945;28;20183;-56
2022/11/15 10:15:15;;;;;;;39.03;27.77;;;;;;;13.20;70.07;99922.59;5072424;28;20332;-56
2022/11/15 10:18:00;;;;;;;39.23;27.97;;;;;;;13.25;70.10;99913.19;5072730;28;20187;-57
2022/11/15 10:20:29;;;;;;;40.53;30.90;;;;;;;13.25;68.64;99918.34;5071583;28;20527;-57
2022/11/15 10:23:00;;;;;;;39.00;27.23;;;;;;;13.07;69.04;99909.50;5071920;28;20195;-56
2022/11/15 10:25:28;;;;;;;34.77;26.17;;;;;;;12.92;69.20;99897.25;5071738;28;20302;-56
2022/11/15 10:27:58;;;;;;;36.80;28.40;;;;;;;13.03;69.20;99917.19;5072304;28;20183;-56
2022/11/15 10:30:32;;;;;;;36.10;26.50;;;;;;;13.00;69.50;99906.81;5071976;28;20187;-57
2022/11/15 10:33:11;;;;;;;34.03;27.40;;;;;;;13.13;69.36;99905.28;5071779;28;20191;-56
2022/11/15 10:35:38;;;;;;;37.20;24.97;;;;;;;13.15;68.53;99905.31;5072191;28;20191;-56
2022/11/15 10:38:09;;;;;;;32.20;24.10;;;;;;;13.08;68.20;99908.66;5071804;28;20662;-57
2022/11/15 10:40:38;;;;;;;32.57;25.93;;;;;;;13.15;68.57;99906.19;5053704;28;20212;-56
2022/11/15 10:43:16;;;;;;;41.63;27.50;;;;;;;12.91;69.02;99857.69;5043226;28;20283;-57
2022/11/15 10:45:45;;;;;;;34.30;27.02;;;;;;;13.10;68.43;99887.22;5043063;28;20497;-56
2022/11/15 10:48:23;;;;;;;32.80;25.37;;;;;;;13.16;69.13;99883.84;5042474;28;20180;-56
2022/11/15 10:50:52;;;;;;;33.83;24.97;;;;;;;13.16;68.52;99878.69;5040523;28;20224;-56
2022/11/15 10:53:24;;;;;;;35.80;26.33;;;;;;;13.39;68.26;99878.09;5040155;28;20535;-56
2022/11/15 10:55:54;;;;;;;35.97;27.90;;;;;;;13.43;68.07;99866.09;5041544;28;20656;-56
2022/11/15 10:58:28;;;;;;;37.70;29.95;;;;;;;13.57;67.39;99859.34;5048366;28;20461;-56
2022/11/15 11:01:08;;;;;;;35.20;28.07;;;;;;;13.77;66.81;99860.41;5063375;28;20222;-56
2022/11/15 11:03:38;;;;;;;34.63;25.80;;;;;;;13.67;66.08;99862.88;5071768;28;20183;-56
2022/11/15 11:06:08;;;;;;;33.43;27.33;;;;;;;13.64;66.02;99855.97;5071048;28;20199;-56
2022/11/15 11:08:35;;;;;;;39.43;29.93;;;;;;;13.62;66.24;99851.66;5071480;28;20211;-56
2022/11/15 11:11:03;;;;;;;39.97;29.43;;;;;;;13.72;66.53;99848.28;5071841;28;20195;-56
2022/11/15 11:13:32;;;;;;;38.30;28.20;;;;;;;13.90;65.82;99845.91;5062630;28;20196;-56
2022/11/15 11:16:17;;;;;;;37.10;28.20;;;;;;;14.00;66.07;99848.56;5049536;28;20197;-56
2022/11/15 11:18:50;;;;;;;39.83;31.20;;;;;;;14.13;65.36;99832.28;5048013;28;20217;-56
2022/11/15 11:21:23;;;;;;;41.93;30.43;;;;;;;14.19;65.13;99836.63;5050552;28;20200;-56
2022/11/15 11:23:55;;;;;;;39.33;28.63;;;;;;;14.16;64.78;99826.28;5046728;28;20689;-57
2022/11/15 11:26:43;;;;;;;42.57;29.10;;;;;;;14.11;63.69;99825.38;5050386;28;20186;-56
2022/11/15 11:29:25;;;;;;;37.97;28.03;;;;;;;14.06;64.35;99824.50;5048723;28;20204;-57
2022/11/15 11:32:00;;;;;;;35.83;27.43;;;;;;;14.07;64.50;99806.41;5049363;28;20246;-57
2022/11/15 11:34:41;;;;;;;40.00;29.90;;;;;;;14.12;64.58;99811.59;5051077;28;20183;-57
2022/11/15 11:37:15;;;;;;;42.03;29.93;;;;;;;14.24;64.61;99803.94;5051588;28;20190;-57
2022/11/15 11:39:54;;;;;;;32.70;26.80;;;;;;;14.20;63.76;99797.03;5050244;28;20226;-56